createdAt,value
2018-11-12T00:00:19.448Z,58.63
2018-11-12T00:02:51.392Z,64.67
2018-11-12T00:05:20.364Z,61.67
2018-11-12T00:07:49.273Z,62.57
2018-11-12T00:10:18.210Z,61.53
2018-11-12T00:12:47.316Z,64.47
2018-11-12T00:15:16.220Z,61.97
2018-11-12T00:17:45.134Z,62.43
2018-11-12T00:20:15.347Z,61.53
2018-11-12T00:22:44.823Z,59.07
2018-11-12T00:25:13.728Z,61.50
2018-11-12T00:27:42.964Z,61.57
2018-11-12T00:30:14.376Z,63.23
2018-11-12T00:32:44.212Z,67.97
2018-11-12T00:35:13.304Z,64.20
2018-11-12T00:37:43.161Z,63.50
2018-11-12T00:40:18.761Z,65.30
2018-11-12T00:42:48.451Z,65.73
2018-11-12T00:45:17.417Z,65.73
2018-11-12T00:47:46.300Z,64.93
2018-11-12T00:50:15.904Z,63.30
2018-11-12T00:52:44.873Z,63.47
2018-11-12T00:55:14.933Z,65.00
2018-11-12T00:57:44.175Z,62.63
2018-11-12T01:00:19.045Z,65.53
2018-11-12T01:02:49.403Z,62.87
2018-11-12T01:05:19.119Z,62.07
2018-11-12T01:07:48.558Z,62.13
2018-11-12T01:10:18.638Z,66.37
2018-11-12T01:12:47.745Z,70.40
2018-11-12T01:15:18.022Z,68.03
2018-11-12T01:17:46.992Z,66.27
2018-11-12T01:20:16.784Z,65.77
2018-11-12T01:22:45.716Z,63.80
2018-11-12T01:25:15.213Z,67.60
2018-11-12T01:27:44.857Z,65.47
2018-11-12T01:30:16.094Z,64.43
2018-11-12T01:32:45.220Z,65.70
2018-11-12T01:35:15.336Z,65.57
2018-11-12T01:37:44.442Z,64.60
2018-11-12T01:40:14.289Z,66.60
2018-11-12T01:42:43.696Z,66.70
2018-11-12T01:45:15.867Z,64.87
2018-11-12T01:47:45.926Z,73.33
2018-11-12T01:50:15.498Z,66.57
2018-11-12T01:52:45.252Z,68.10
2018-11-12T01:55:15.336Z,69.77
2018-11-12T01:57:44.702Z,69.83
2018-11-12T02:00:17.579Z,69.50
2018-11-12T02:02:47.611Z,69.00
2018-11-12T02:05:16.857Z,72.07
2018-11-12T02:07:45.871Z,71.97
2018-11-12T02:10:16.225Z,70.97
2018-11-12T02:12:45.098Z,68.03
2018-11-12T02:15:15.867Z,67.67
2018-11-12T02:17:45.876Z,69.10
2018-11-12T02:20:15.882Z,70.40
2018-11-12T02:22:45.735Z,72.03
2018-11-12T02:25:15.337Z,68.17
2018-11-12T02:27:44.275Z,74.23
2018-11-12T02:30:17.268Z,68.40
2018-11-12T02:32:46.229Z,69.90
2018-11-12T02:35:15.600Z,69.10
2018-11-12T02:37:44.564Z,71.03
2018-11-12T02:40:14.014Z,69.27
2018-11-12T02:42:43.869Z,68.43
2018-11-12T02:45:13.865Z,73.80
2018-11-12T02:47:43.727Z,70.10
2018-11-12T02:50:15.407Z,68.87
2018-11-12T02:52:44.409Z,71.80
2018-11-12T02:55:15.168Z,73.03
2018-11-12T02:57:45.045Z,74.87
2018-11-12T03:00:17.439Z,72.33
2018-11-12T03:02:46.478Z,71.77
2018-11-12T03:05:15.428Z,74.63
2018-11-12T03:07:44.547Z,69.10
2018-11-12T03:10:16.653Z,69.73
2018-11-12T03:12:45.536Z,70.27
2018-11-12T03:15:15.291Z,71.37
2018-11-12T03:17:45.219Z,69.83
2018-11-12T03:20:16.426Z,72.00
2018-11-12T03:22:45.429Z,72.87
2018-11-12T03:25:15.609Z,72.90
2018-11-12T03:27:45.315Z,68.60
2018-11-12T03:30:16.328Z,69.57
2018-11-12T03:32:46.184Z,73.30
2018-11-12T03:35:15.485Z,69.20
2018-11-12T03:37:45.558Z,69.93
2018-11-12T03:40:17.667Z,72.53
2018-11-12T03:42:47.035Z,76.37
2018-11-12T03:45:18.355Z,66.30
2018-11-12T03:47:47.268Z,71.57
2018-11-12T03:50:20.612Z,71.23
2018-11-12T03:52:49.555Z,72.03
2018-11-12T03:55:19.739Z,66.60
2018-11-12T03:57:48.724Z,67.77
2018-11-12T04:00:20.130Z,69.63
2018-11-12T04:02:49.054Z,66.57
2018-11-12T04:05:17.982Z,65.60
2018-11-12T04:07:46.899Z,64.60
2018-11-12T04:10:17.479Z,62.07
2018-11-12T04:12:46.462Z,64.47
2018-11-12T04:15:16.889Z,62.10
2018-11-12T04:17:45.864Z,65.57
2018-11-12T04:20:16.130Z,64.43
2018-11-12T04:22:50.279Z,64.27
2018-11-12T04:25:19.324Z,63.17
2018-11-12T04:27:48.257Z,65.70
2018-11-12T04:30:17.198Z,63.77
2018-11-12T04:32:46.804Z,64.90
2018-11-12T04:35:15.685Z,62.93
2018-11-12T04:37:44.596Z,63.53
2018-11-12T04:40:15.384Z,62.67
2018-11-12T04:42:44.658Z,60.60
2018-11-12T04:45:14.701Z,63.30
2018-11-12T04:47:44.421Z,62.47
2018-11-12T04:50:15.505Z,61.63
2018-11-12T04:52:44.524Z,60.33
2018-11-12T04:55:14.706Z,59.80
2018-11-12T04:57:44.194Z,58.70
2018-11-12T05:00:15.444Z,61.77
2018-11-12T05:02:44.454Z,60.17
2018-11-12T05:05:14.404Z,58.87
2018-11-12T05:07:43.865Z,62.23
2018-11-12T05:10:13.968Z,60.83
2018-11-12T05:12:43.736Z,63.10
2018-11-12T05:15:14.826Z,61.40
2018-11-12T05:17:43.738Z,61.23
2018-11-12T05:20:15.052Z,65.63
2018-11-12T05:22:44.080Z,63.77
2018-11-12T05:25:13.068Z,65.10
2018-11-12T05:27:41.953Z,67.50
2018-11-12T05:30:15.428Z,64.27
2018-11-12T05:32:44.353Z,68.10
2018-11-12T05:35:14.500Z,66.37
2018-11-12T05:37:43.753Z,63.83
2018-11-12T05:40:15.575Z,64.93
2018-11-12T05:42:44.805Z,65.00
2018-11-12T05:45:14.788Z,65.73
2018-11-12T05:47:43.736Z,64.77
2018-11-12T05:50:15.235Z,66.77
2018-11-12T05:52:45.421Z,62.87
2018-11-12T05:55:15.967Z,62.87
2018-11-12T05:57:45.522Z,62.83
2018-11-12T06:00:16.227Z,64.20
2018-11-12T06:02:45.120Z,63.67
2018-11-12T06:05:14.961Z,65.20
2018-11-12T06:07:44.420Z,66.00
2018-11-12T06:10:16.260Z,65.90
2018-11-12T06:12:45.635Z,65.90
2018-11-12T06:15:15.258Z,67.90
2018-11-12T06:17:45.096Z,67.07
2018-11-12T06:20:17.935Z,64.53
2018-11-12T06:22:46.938Z,69.87
2018-11-12T06:25:17.340Z,70.50
2018-11-12T06:27:46.411Z,69.87
2018-11-12T06:30:17.597Z,71.30
2018-11-12T06:32:46.578Z,70.53
2018-11-12T06:35:16.039Z,71.40
2018-11-12T06:37:45.672Z,71.23
2018-11-12T06:40:16.728Z,70.33
2018-11-12T06:42:45.760Z,72.73
2018-11-12T06:45:18.892Z,75.53
2018-11-12T06:47:48.804Z,76.83
2018-11-12T06:50:19.061Z,77.37
2018-11-12T06:52:48.011Z,84.00
2018-11-12T06:55:17.651Z,78.27
2018-11-12T06:57:46.801Z,80.37
2018-11-12T07:00:19.651Z,76.43
2018-11-12T07:02:48.530Z,70.97
2018-11-12T07:05:17.927Z,69.23
2018-11-12T07:07:46.877Z,68.43
2018-11-12T07:10:18.123Z,69.83
2018-11-12T07:12:47.820Z,67.97
2018-11-12T07:15:18.047Z,69.17
2018-11-12T07:17:46.976Z,68.43
2018-11-12T07:20:17.576Z,70.23
2018-11-12T07:22:46.510Z,68.40
2018-11-12T07:25:16.500Z,69.03
2018-11-12T07:27:45.444Z,68.73
2018-11-12T07:30:18.577Z,67.03
2018-11-12T07:32:48.640Z,69.97
2018-11-12T07:35:18.349Z,67.70
2018-11-12T07:37:48.864Z,71.97
2018-11-12T07:40:18.400Z,67.30
2018-11-12T07:42:47.402Z,72.73
2018-11-12T07:45:17.894Z,71.07
2018-11-12T07:47:47.880Z,71.33
2018-11-12T07:50:19.010Z,72.73
2018-11-12T07:52:48.050Z,73.83
2018-11-12T07:55:19.036Z,75.90
2018-11-12T07:57:49.328Z,74.97
2018-11-12T08:00:21.104Z,69.30
2018-11-12T08:02:51.314Z,65.20
2018-11-12T08:05:20.192Z,62.07
2018-11-12T08:07:49.070Z,65.80
2018-11-12T08:10:19.368Z,69.07
2018-11-12T08:12:48.667Z,67.20
2018-11-12T08:15:19.122Z,67.40
2018-11-12T08:17:48.478Z,71.03
2018-11-12T08:20:22.462Z,70.73
2018-11-12T08:22:52.311Z,70.83
2018-11-12T08:25:21.272Z,69.80
2018-11-12T08:27:50.743Z,68.23
2018-11-12T08:30:21.783Z,71.10
2018-11-12T08:32:52.081Z,67.23
2018-11-12T08:35:21.181Z,67.77
2018-11-12T08:37:50.599Z,67.60
2018-11-12T08:40:20.975Z,70.80
2018-11-12T08:42:49.880Z,65.63
2018-11-12T08:45:18.814Z,67.33
2018-11-12T08:47:49.661Z,66.77
2018-11-12T08:50:20.088Z,68.67
2018-11-12T08:52:50.174Z,69.23
2018-11-12T08:55:20.776Z,68.77
2018-11-12T08:57:51.496Z,68.73
2018-11-12T09:00:21.320Z,63.83
2018-11-12T09:02:50.218Z,67.87
2018-11-12T09:05:20.817Z,66.67
2018-11-12T09:07:51.181Z,68.47
2018-11-12T09:10:24.236Z,64.50
2018-11-12T09:12:53.324Z,65.20
2018-11-12T09:15:22.261Z,69.27
2018-11-12T09:17:51.244Z,64.17
2018-11-12T09:20:23.361Z,62.33
2018-11-12T09:22:52.828Z,60.83
2018-11-12T09:25:23.635Z,62.17
2018-11-12T09:27:52.648Z,62.03
2018-11-12T09:30:23.484Z,62.03
2018-11-12T09:32:52.561Z,60.87
2018-11-12T09:35:25.577Z,58.20
2018-11-12T09:37:55.380Z,57.10
2018-11-12T09:40:28.612Z,56.80
2018-11-12T09:42:57.606Z,53.57
2018-11-12T09:45:26.605Z,55.67
2018-11-12T09:47:55.670Z,51.60
2018-11-12T09:50:25.691Z,50.53
2018-11-12T09:52:55.630Z,49.87
2018-11-12T09:55:25.691Z,50.23
2018-11-12T09:57:59.217Z,47.13
2018-11-12T10:00:28.440Z,49.30
2018-11-12T10:02:58.075Z,47.27
2018-11-12T10:05:27.545Z,46.93
2018-11-12T10:08:00.138Z,44.90
2018-11-12T10:10:37.542Z,44.77
2018-11-12T10:13:08.031Z,44.40
2018-11-12T10:15:38.136Z,45.53
2018-11-12T10:18:06.211Z,43.10
2018-11-12T10:20:32.667Z,44.10
2018-11-12T10:23:01.641Z,43.80
2018-11-12T10:25:30.521Z,41.17
2018-11-12T10:27:59.447Z,40.77
2018-11-12T10:30:28.361Z,40.33
2018-11-12T10:32:58.116Z,41.47
2018-11-12T10:35:27.091Z,41.83
2018-11-12T10:37:56.100Z,38.40
2018-11-12T10:40:25.719Z,39.60
2018-11-12T10:42:54.733Z,38.23
2018-11-12T10:45:23.746Z,36.97
2018-11-12T10:47:53.435Z,37.50
2018-11-12T10:50:22.728Z,36.70
2018-11-12T10:52:52.949Z,36.43
2018-11-12T10:55:23.535Z,35.73
2018-11-12T10:57:52.956Z,35.70
2018-11-12T11:00:33.850Z,36.10
2018-11-12T11:03:13.961Z,35.97
2018-11-12T11:05:44.321Z,35.73
2018-11-12T11:08:13.407Z,36.03
2018-11-12T11:10:42.357Z,35.17
2018-11-12T11:13:11.296Z,35.83
2018-11-12T11:15:40.622Z,35.20
2018-11-12T11:18:09.560Z,31.27
2018-11-12T11:20:38.479Z,32.73
2018-11-12T11:23:07.395Z,32.27
2018-11-12T11:25:36.310Z,30.80
2018-11-12T11:28:05.493Z,31.30
2018-11-12T11:30:34.452Z,30.27
2018-11-12T11:33:03.346Z,28.33
2018-11-12T11:35:32.375Z,28.73
2018-11-12T11:38:01.337Z,27.97
2018-11-12T11:40:30.425Z,29.43
2018-11-12T11:42:59.461Z,30.10
2018-11-12T11:45:28.496Z,28.77
2018-11-12T11:47:57.575Z,29.27
2018-11-12T11:50:27.468Z,28.10
2018-11-12T11:52:56.436Z,27.83
2018-11-12T11:55:25.696Z,29.97
2018-11-12T11:57:54.971Z,28.47
2018-11-12T12:00:26.412Z,28.17
2018-11-12T12:02:56.499Z,27.17
2018-11-12T12:05:27.016Z,25.20
2018-11-12T12:07:56.681Z,26.53
2018-11-12T12:10:25.867Z,24.87
2018-11-12T12:12:54.778Z,26.23
2018-11-12T12:15:24.526Z,25.30
2018-11-12T12:17:53.473Z,25.27
2018-11-12T12:20:25.501Z,26.03
2018-11-12T12:22:54.953Z,23.80
2018-11-12T12:25:24.100Z,23.87
2018-11-12T12:27:53.132Z,25.40
2018-11-12T12:30:26.288Z,24.20
2018-11-12T12:32:56.043Z,25.30
2018-11-12T12:35:25.142Z,30.47
2018-11-12T12:37:54.533Z,33.33
2018-11-12T12:40:24.564Z,32.23
2018-11-12T12:42:53.602Z,31.53
2018-11-12T12:45:24.527Z,33.37
2018-11-12T12:47:54.193Z,32.50
2018-11-12T12:50:23.496Z,35.73
2018-11-12T12:52:52.541Z,35.03
2018-11-12T12:55:21.590Z,36.90
2018-11-12T12:57:50.614Z,34.60
2018-11-12T13:00:21.028Z,37.47
2018-11-12T13:02:50.012Z,37.03
2018-11-12T13:05:18.930Z,39.90
2018-11-12T13:07:47.984Z,40.23
2018-11-12T13:10:18.409Z,42.37
2018-11-12T13:12:47.404Z,40.93
2018-11-12T13:15:17.805Z,40.57
2018-11-12T13:17:47.833Z,41.13
2018-11-12T13:20:18.270Z,44.17
2018-11-12T13:22:47.926Z,44.17
2018-11-12T13:25:17.077Z,41.53
2018-11-12T13:27:46.726Z,41.67
2018-11-12T13:30:17.969Z,43.50
2018-11-12T13:32:47.191Z,44.20
2018-11-12T13:35:17.616Z,42.73
2018-11-12T13:37:46.635Z,43.20
2018-11-12T13:40:18.080Z,41.10
2018-11-12T13:43:01.152Z,45.07
2018-11-12T13:45:30.151Z,46.47
2018-11-12T13:47:59.956Z,47.60
2018-11-12T13:50:30.539Z,43.13
2018-11-12T13:53:00.541Z,52.60
2018-11-12T13:55:30.102Z,47.07
2018-11-12T13:57:59.080Z,48.20
2018-11-12T14:00:29.287Z,45.10
2018-11-12T14:02:58.478Z,48.10
2018-11-12T14:05:28.369Z,50.30
2018-11-12T14:07:57.320Z,55.90
2018-11-12T14:10:28.018Z,50.63
2018-11-12T14:12:57.967Z,49.63
2018-11-12T14:15:27.448Z,53.03
2018-11-12T14:17:57.034Z,50.73
2018-11-12T14:20:27.236Z,51.93
2018-11-12T14:22:56.113Z,52.97
2018-11-12T14:25:25.814Z,57.17
2018-11-12T14:28:02.985Z,70.53
2018-11-12T14:30:32.062Z,51.33
2018-11-12T14:33:01.108Z,52.10
2018-11-12T14:35:30.601Z,50.07
2018-11-12T14:37:59.520Z,55.57
2018-11-12T14:40:28.492Z,70.80
2018-11-12T14:42:57.465Z,54.40
2018-11-12T14:45:26.495Z,55.60
2018-11-12T14:47:55.478Z,50.47
2018-11-12T14:50:24.463Z,50.33
2018-11-12T14:52:53.472Z,52.40
2018-11-12T14:55:22.447Z,68.73
2018-11-12T14:57:51.460Z,51.87
2018-11-12T15:00:25.594Z,48.77
2018-11-12T15:02:56.361Z,48.43
2018-11-12T15:05:26.196Z,48.67
2018-11-12T15:07:55.279Z,47.57
2018-11-12T15:10:24.352Z,50.97
2018-11-12T15:12:53.381Z,48.23
2018-11-12T15:15:22.464Z,51.00
2018-11-12T15:17:51.550Z,48.37
2018-11-12T15:20:20.952Z,49.37
2018-11-12T15:22:50.073Z,48.50
2018-11-12T15:25:21.641Z,48.03
2018-11-12T15:27:50.624Z,47.07
2018-11-12T15:30:21.924Z,58.80
2018-11-12T15:32:52.150Z,48.70
2018-11-12T15:35:21.057Z,47.40
2018-11-12T15:37:50.891Z,50.10
2018-11-12T15:40:20.600Z,47.67
2018-11-12T15:42:50.084Z,46.87
2018-11-12T15:45:21.376Z,48.30
2018-11-12T15:47:52.438Z,47.53
2018-11-12T15:50:28.963Z,47.20
2018-11-12T15:52:57.952Z,48.60
2018-11-12T15:55:26.901Z,47.97
2018-11-12T15:57:56.022Z,46.33
2018-11-12T16:00:25.566Z,51.43
2018-11-12T16:02:55.410Z,52.73
2018-11-12T16:05:24.383Z,57.80
2018-11-12T16:07:53.287Z,54.63
2018-11-12T16:10:22.674Z,50.07
2018-11-12T16:12:52.718Z,49.53
2018-11-12T16:15:23.259Z,55.53
2018-11-12T16:17:52.241Z,60.87
2018-11-12T16:20:24.876Z,56.57
2018-11-12T16:22:54.120Z,63.17
2018-11-12T16:25:23.505Z,54.10
2018-11-12T16:27:52.460Z,60.93
2018-11-12T16:30:22.073Z,55.07
2018-11-12T16:32:51.049Z,55.53
2018-11-12T16:35:21.574Z,55.67
2018-11-12T16:37:51.616Z,53.33
2018-11-12T16:40:20.809Z,52.83
2018-11-12T16:42:50.630Z,54.33
2018-11-12T16:45:19.777Z,53.70
2018-11-12T16:47:49.650Z,52.00
2018-11-12T16:50:18.783Z,52.80
2018-11-12T16:52:47.734Z,53.67
2018-11-12T16:55:19.155Z,52.70
2018-11-12T16:57:48.142Z,51.00
2018-11-12T17:00:19.027Z,53.43
2018-11-12T17:02:48.268Z,54.70
2018-11-12T17:05:20.628Z,56.90
2018-11-12T17:07:49.680Z,54.20
2018-11-12T17:10:20.038Z,55.27
2018-11-12T17:12:49.462Z,56.47
2018-11-12T17:15:18.352Z,55.50
2018-11-12T17:17:48.692Z,57.03
2018-11-12T17:20:19.114Z,57.10
2018-11-12T17:22:48.146Z,56.33
2018-11-12T17:25:17.745Z,58.03
2018-11-12T17:27:47.309Z,56.97
2018-11-12T17:30:19.123Z,64.50
2018-11-12T17:32:49.023Z,59.57
2018-11-12T17:35:19.274Z,57.00
2018-11-12T17:37:48.245Z,60.97
2018-11-12T17:40:18.380Z,62.07
2018-11-12T17:42:48.441Z,59.27
2018-11-12T17:45:18.556Z,57.20
2018-11-12T17:47:48.548Z,59.77
2018-11-12T17:50:17.492Z,56.57
2018-11-12T17:52:46.686Z,60.17
2018-11-12T17:55:15.599Z,60.63
2018-11-12T17:57:44.484Z,62.20
2018-11-12T18:00:16.206Z,67.57
2018-11-12T18:02:45.349Z,61.70
2018-11-12T18:05:14.245Z,64.47
2018-11-12T18:07:43.746Z,63.43
2018-11-12T18:10:13.715Z,61.33
2018-11-12T18:12:42.621Z,63.63
2018-11-12T18:15:13.291Z,57.00
2018-11-12T18:17:42.355Z,56.33
2018-11-12T18:20:15.772Z,58.03
2018-11-12T18:22:44.721Z,62.93
2018-11-12T18:25:14.309Z,63.73
2018-11-12T18:27:43.259Z,61.30
2018-11-12T18:30:15.939Z,61.43
2018-11-12T18:32:45.451Z,63.40
2018-11-12T18:35:14.356Z,57.57
2018-11-12T18:37:43.342Z,61.63
2018-11-12T18:40:14.351Z,60.37
2018-11-12T18:42:43.260Z,58.33
2018-11-12T18:45:15.375Z,59.90
2018-11-12T18:47:44.741Z,63.03
2018-11-12T18:50:17.142Z,63.17
2018-11-12T18:52:46.454Z,62.70
2018-11-12T18:55:15.829Z,63.07
2018-11-12T18:57:45.646Z,62.70
2018-11-12T19:00:16.517Z,64.57
2018-11-12T19:02:45.912Z,66.90
2018-11-12T19:05:18.262Z,65.77
2018-11-12T19:07:48.590Z,67.37
2018-11-12T19:10:25.741Z,68.47
2018-11-12T19:12:55.023Z,71.40
2018-11-12T19:15:28.757Z,70.17
2018-11-12T19:18:00.439Z,70.37
2018-11-12T19:20:29.342Z,68.60
2018-11-12T19:22:58.244Z,68.60
2018-11-12T19:25:27.205Z,67.60
2018-11-12T19:27:56.155Z,70.80
2018-11-12T19:30:26.188Z,68.73
2018-11-12T19:32:55.321Z,69.90
2018-11-12T19:35:25.776Z,69.33
2018-11-12T19:37:54.741Z,67.13
2018-11-12T19:40:25.044Z,67.77
2018-11-12T19:42:55.014Z,68.77
2018-11-12T19:45:24.018Z,69.83
2018-11-12T19:47:53.520Z,71.03
2018-11-12T19:50:23.659Z,69.57
2018-11-12T19:52:54.008Z,70.53
2018-11-12T19:55:22.929Z,69.83
2018-11-12T19:57:52.023Z,71.70
2018-11-12T20:00:22.624Z,72.53
2018-11-12T20:02:56.245Z,69.90
2018-11-12T20:05:25.224Z,74.60
2018-11-12T20:07:54.344Z,72.77
2018-11-12T20:10:23.875Z,75.70
2018-11-12T20:12:52.840Z,75.53
2018-11-12T20:15:23.080Z,75.00
2018-11-12T20:17:53.442Z,76.43
2018-11-12T20:20:23.923Z,74.50
2018-11-12T20:22:53.224Z,74.00
2018-11-12T20:25:22.406Z,74.10
2018-11-12T20:27:52.377Z,76.37
2018-11-12T20:30:30.766Z,75.57
2018-11-12T20:32:59.675Z,75.67
2018-11-12T20:35:28.630Z,72.13
2018-11-12T20:37:57.706Z,74.20
2018-11-12T20:40:26.724Z,78.53
2018-11-12T20:42:55.707Z,74.80
2018-11-12T20:45:24.926Z,73.43
2018-11-12T20:47:55.352Z,75.73
2018-11-12T20:50:24.288Z,76.27
2018-11-12T20:52:53.254Z,78.93
2018-11-12T20:55:22.200Z,73.73
2018-11-12T20:57:51.164Z,76.67
2018-11-12T21:00:22.491Z,81.20
2018-11-12T21:02:52.473Z,78.57
2018-11-12T21:05:22.839Z,77.40
2018-11-12T21:07:52.574Z,78.23
2018-11-12T21:10:21.647Z,77.37
2018-11-12T21:12:51.106Z,77.40
2018-11-12T21:15:21.136Z,82.13
2018-11-12T21:17:50.217Z,75.83
2018-11-12T21:20:22.671Z,82.47
2018-11-12T21:22:51.814Z,82.00
2018-11-12T21:25:22.020Z,81.03
2018-11-12T21:27:51.600Z,79.23
2018-11-12T21:30:21.626Z,82.80
2018-11-12T21:32:50.734Z,80.27
2018-11-12T21:35:19.664Z,82.17
2018-11-12T21:37:49.561Z,80.87
2018-11-12T21:40:23.754Z,84.27
2018-11-12T21:42:53.127Z,82.00
2018-11-12T21:45:24.723Z,78.80
2018-11-12T21:47:53.712Z,81.77
2018-11-12T21:50:23.175Z,79.97
2018-11-12T21:52:52.099Z,82.33
2018-11-12T21:55:20.973Z,80.27
2018-11-12T21:57:49.903Z,79.70
2018-11-12T22:00:24.727Z,81.40
2018-11-12T22:03:03.153Z,79.83
2018-11-12T22:05:33.832Z,79.47
2018-11-12T22:08:03.990Z,80.60
2018-11-12T22:10:32.902Z,81.83
2018-11-12T22:13:01.809Z,79.87
2018-11-12T22:15:30.837Z,80.10
2018-11-12T22:17:59.837Z,83.90
2018-11-12T22:20:29.457Z,79.87
2018-11-12T22:22:58.420Z,77.90
2018-11-12T22:25:27.291Z,81.77
2018-11-12T22:27:56.196Z,81.50
2018-11-12T22:30:26.486Z,83.67
2018-11-12T22:32:56.291Z,83.97
2018-11-12T22:35:25.190Z,82.17
2018-11-12T22:37:54.176Z,81.17
2018-11-12T22:40:23.538Z,82.77
2018-11-12T22:42:53.280Z,84.03
2018-11-12T22:45:23.532Z,80.47
2018-11-12T22:47:52.753Z,80.43
2018-11-12T22:50:21.648Z,84.93
2018-11-12T22:52:50.601Z,81.73
2018-11-12T22:55:20.321Z,83.53
2018-11-12T22:57:49.196Z,80.70
2018-11-12T23:00:25.825Z,79.50
2018-11-12T23:02:54.910Z,78.73
2018-11-12T23:05:24.303Z,79.87
2018-11-12T23:07:54.142Z,77.70
2018-11-12T23:10:23.171Z,77.10
2018-11-12T23:12:52.266Z,83.50
2018-11-12T23:15:21.544Z,82.73
2018-11-12T23:17:50.459Z,83.57
2018-11-12T23:20:21.820Z,81.93
2018-11-12T23:22:51.617Z,82.80
2018-11-12T23:25:20.517Z,79.60
2018-11-12T23:27:50.229Z,81.03
2018-11-12T23:30:20.414Z,81.67
2018-11-12T23:32:49.333Z,80.97
2018-11-12T23:35:19.660Z,77.57
2018-11-12T23:37:49.252Z,78.00
2018-11-12T23:40:18.166Z,80.13
2018-11-12T23:42:47.694Z,79.10
2018-11-12T23:45:16.623Z,74.20
2018-11-12T23:47:45.521Z,77.53
2018-11-12T23:50:17.133Z,74.67
2018-11-12T23:52:46.920Z,78.00
2018-11-12T23:55:16.314Z,76.77
2018-11-12T23:57:45.993Z,74.50
